Time;durP1;ratioP1;P1;durP2;ratioP2;P2;SDS_P1;SDS_P2;PMS_P1;PMS_P2;Temp;Humidity;BMP_temperature;BMP_pressure;BME280_temperature;BME280_humidity;BME280_pressure;Samples;Min_cycle;Max_cycle;Signal;HPM_P1;HPM_P2
2022/05/24 00:01:19;;;;;;;2.27;1.03;;;19.70;39.70;;;;;;10433174;28;20217;-70
2022/05/24 00:06:22;;;;;;;3.77;1.10;;;19.70;40.60;;;;;;10437297;28;20233;-70
2022/05/24 00:11:26;;;;;;;0.90;0.90;;;19.60;40.00;;;;;;10436239;28;20716;-71
2022/05/24 00:16:30;;;;;;;1.10;1.10;;;19.60;40.10;;;;;;10428498;28;20228;-70
2022/05/24 00:21:34;;;;;;;1.10;1.00;;;19.60;40.90;;;;;;10436304;28;20308;-70
2022/05/24 00:26:37;;;;;;;1.20;1.10;;;19.60;40.40;;;;;;10438419;28;20243;-70
2022/05/24 00:31:42;;;;;;;0.93;0.93;;;19.60;40.40;;;;;;10431077;28;20235;-70
2022/05/24 00:36:45;;;;;;;1.37;1.10;;;19.60;41.20;;;;;;10436217;28;20224;-70
2022/05/24 00:41:56;;;;;;;1.20;1.10;;;19.60;40.60;;;;;;10434283;28;20229;-70
2022/05/24 00:47:04;;;;;;;1.27;1.10;;;19.60;42.10;;;;;;10432695;28;20244;-70
2022/05/24 00:52:10;;;;;;;1.17;1.10;;;19.50;41.90;;;;;;10434501;28;20212;-70
2022/05/24 00:57:24;;;;;;;1.50;1.17;;;19.50;41.80;;;;;;10430807;28;20229;-70
2022/05/24 01:02:29;;;;;;;2.33;1.53;;;19.50;42.20;;;;;;10434444;28;20225;-70
2022/05/24 01:07:32;;;;;;;1.50;1.33;;;19.50;41.90;;;;;;10431546;28;20236;-70
2022/05/24 01:12:40;;;;;;;1.47;1.33;;;19.50;41.30;;;;;;10429966;28;20225;-70
2022/05/24 01:17:46;;;;;;;1.83;1.57;;;19.40;42.40;;;;;;10430967;28;20231;-70
2022/05/24 01:23:13;;;;;;;3.03;1.40;;;19.40;42.50;;;;;;10432135;28;20225;-71
2022/05/24 01:28:23;;;;;;;2.07;1.37;;;19.40;43.20;;;;;;10429051;28;20232;-70
2022/05/24 01:38:49;;;;;;;2.80;1.30;;;19.60;41.70;;;;;;10434634;28;20224;-70
2022/05/24 01:43:56;;;;;;;2.60;1.40;;;19.60;42.60;;;;;;10433894;28;20233;-70
2022/05/24 01:49:03;;;;;;;3.50;1.57;;;19.60;42.90;;;;;;10431309;28;20581;-71
2022/05/24 01:54:08;;;;;;;1.83;1.50;;;19.60;43.00;;;;;;10432774;28;20953;-70
2022/05/24 01:59:14;;;;;;;3.10;1.63;;;19.60;42.70;;;;;;10432057;28;20225;-71
2022/05/24 02:04:19;;;;;;;1.70;1.60;;;19.60;43.10;;;;;;10432056;28;20236;-70
2022/05/24 02:09:22;;;;;;;2.00;1.50;;;19.60;42.70;;;;;;10432419;28;20229;-71
2022/05/24 02:14:32;;;;;;;2.73;1.63;;;19.60;42.30;;;;;;10427755;28;20225;-70
2022/05/24 02:19:40;;;;;;;2.23;1.60;;;19.60;43.90;;;;;;10431329;28;20229;-71
2022/05/24 02:24:43;;;;;;;4.50;1.83;;;19.60;43.40;;;;;;10433002;28;20221;-70
2022/05/24 02:29:48;;;;;;;2.73;1.77;;;19.70;42.50;;;;;;10428872;28;20635;-70
2022/05/24 02:34:51;;;;;;;2.73;1.70;;;19.70;43.20;;;;;;10438876;28;20225;-70
2022/05/24 02:45:17;;;;;;;3.07;2.10;;;19.80;42.60;;;;;;10440091;28;20665;-70
2022/05/24 02:50:21;;;;;;;2.10;1.70;;;19.80;43.60;;;;;;10442576;28;20229;-70
2022/05/24 02:55:24;;;;;;;2.20;2.00;;;19.80;42.90;;;;;;10434205;28;20229;-70
2022/05/24 03:00:29;;;;;;;1.87;1.77;;;19.80;42.90;;;;;;10440601;28;20735;-70
2022/05/24 03:05:32;;;;;;;2.53;1.70;;;19.90;43.70;;;;;;10437882;28;20232;-70
2022/05/24 03:10:39;;;;;;;4.03;2.00;;;19.90;42.90;;;;;;10437280;28;20646;-70
2022/05/24 03:15:44;;;;;;;2.77;2.00;;;19.90;44.30;;;;;;10439059;28;20229;-70
2022/05/24 03:20:48;;;;;;;2.87;1.90;;;19.90;43.70;;;;;;10437857;28;20236;-70
2022/05/24 03:25:51;;;;;;;3.97;1.90;;;20.00;42.90;;;;;;10434105;28;20231;-70
2022/05/24 03:30:56;;;;;;;2.33;2.13;;;20.00;42.70;;;;;;10439237;28;20775;-70
2022/05/24 03:35:59;;;;;;;2.30;1.90;;;20.00;43.40;;;;;;10439941;28;20241;-70
2022/05/24 03:41:02;;;;;;;3.73;2.40;;;20.00;42.70;;;;;;10436411;28;20229;-70
2022/05/24 03:46:09;;;;;;;2.70;1.83;;;20.10;42.80;;;;;;10433960;28;21020;-70
2022/05/24 03:51:13;;;;;;;2.83;2.03;;;20.10;43.80;;;;;;10437907;28;20257;-70
2022/05/24 03:56:16;;;;;;;2.23;1.70;;;20.10;42.90;;;;;;10437747;28;20701;-72
2022/05/24 04:01:20;;;;;;;2.80;2.10;;;20.10;42.80;;;;;;10437021;28;20221;-71
2022/05/24 04:06:24;;;;;;;1.83;1.63;;;20.10;43.40;;;;;;10437179;28;20257;-72
2022/05/24 04:11:27;;;;;;;2.10;1.90;;;20.10;42.80;;;;;;10431644;28;20225;-71
2022/05/24 04:16:32;;;;;;;2.13;1.87;;;20.20;42.90;;;;;;10435285;28;20229;-71
2022/05/24 04:21:35;;;;;;;2.57;1.83;;;20.20;43.60;;;;;;10437794;28;20228;-71
2022/05/24 04:26:38;;;;;;;3.70;2.10;;;20.20;42.90;;;;;;10436009;28;20252;-71
2022/05/24 04:31:43;;;;;;;3.57;2.20;;;20.30;42.90;;;;;;10432226;28;20228;-71
2022/05/24 04:36:46;;;;;;;4.17;1.83;;;20.30;43.30;;;;;;10429994;28;20705;-71
2022/05/24 04:47:18;;;;;;;2.47;2.27;;;20.20;42.90;;;;;;10432653;28;20236;-71
2022/05/24 04:52:23;;;;;;;2.67;2.00;;;20.20;43.70;;;;;;10431409;28;20228;-71
2022/05/24 04:57:27;;;;;;;4.00;2.07;;;20.20;43.40;;;;;;10432085;28;20233;-71
2022/05/24 05:02:31;;;;;;;2.30;1.90;;;20.20;43.30;;;;;;10430390;28;20216;-72
2022/05/24 05:07:34;;;;;;;2.20;2.00;;;20.10;43.90;;;;;;10431913;28;20229;-74
2022/05/24 05:12:38;;;;;;;3.07;2.17;;;20.10;43.60;;;;;;10433516;28;20226;-72
2022/05/24 05:17:43;;;;;;;2.50;2.30;;;20.10;43.70;;;;;;10430835;28;20891;-72
2022/05/24 05:22:46;;;;;;;2.10;1.90;;;20.20;44.20;;;;;;10430545;28;20221;-73
2022/05/24 05:27:49;;;;;;;2.77;2.00;;;20.20;43.70;;;;;;10433862;28;20236;-72
2022/05/24 05:32:54;;;;;;;2.70;1.93;;;20.20;43.60;;;;;;10438186;28;20228;-72
2022/05/24 05:37:57;;;;;;;2.77;1.90;;;20.20;44.10;;;;;;10432869;28;20716;-72
2022/05/24 05:43:00;;;;;;;3.20;2.00;;;20.20;43.70;;;;;;10427368;28;20740;-73
2022/05/24 05:48:05;;;;;;;2.80;1.90;;;20.20;43.80;;;;;;10435968;28;20224;-72
2022/05/24 05:53:09;;;;;;;2.20;2.00;;;20.20;44.40;;;;;;10431632;28;20237;-72
2022/05/24 05:58:13;;;;;;;4.77;2.07;;;20.30;44.10;;;;;;10430434;28;20225;-72
2022/05/24 06:03:18;;;;;;;2.00;1.80;;;20.30;44.10;;;;;;10429802;28;20595;-72
2022/05/24 06:08:22;;;;;;;2.10;1.90;;;20.40;44.70;;;;;;10430415;28;20244;-72
2022/05/24 06:13:25;;;;;;;2.83;2.10;;;20.40;44.00;;;;;;10435436;28;20229;-72
2022/05/24 06:18:30;;;;;;;2.33;2.13;;;20.40;44.00;;;;;;10436530;28;20592;-75
2022/05/24 06:23:33;;;;;;;2.53;1.97;;;20.40;44.50;;;;;;10433202;28;20213;-71
2022/05/24 06:28:36;;;;;;;2.40;2.20;;;20.50;43.90;;;;;;10431078;28;20235;-72
2022/05/24 06:33:41;;;;;;;2.40;2.20;;;20.50;44.00;;;;;;10432862;28;20228;-72
2022/05/24 06:38:44;;;;;;;2.77;2.50;;;20.50;44.60;;;;;;10435828;28;20239;-72
2022/05/24 06:43:47;;;;;;;2.93;2.30;;;20.50;44.30;;;;;;10432536;28;20228;-72
2022/05/24 06:48:52;;;;;;;2.40;2.20;;;20.50;44.40;;;;;;10433590;28;20231;-72
2022/05/24 06:53:55;;;;;;;3.77;3.00;;;20.50;44.90;;;;;;10428225;28;20744;-73
2022/05/24 07:04:16;;;;;;;4.73;2.90;;;20.60;44.60;;;;;;10429003;28;20216;-73
2022/05/24 07:09:19;;;;;;;4.37;2.33;;;20.60;44.90;;;;;;10431489;28;20225;-73
2022/05/24 07:14:23;;;;;;;2.70;2.50;;;20.60;44.40;;;;;;10428841;28;20229;-73
2022/05/24 07:19:28;;;;;;;1.93;1.83;;;20.70;43.90;;;;;;10434232;28;20228;-73
2022/05/24 07:24:31;;;;;;;2.40;1.73;;;20.60;43.70;;;;;;10433419;28;20262;-73
2022/05/24 07:29:35;;;;;;;4.10;1.80;;;20.60;43.00;;;;;;10436104;28;20231;-73
2022/05/24 07:34:40;;;;;;;7.10;2.63;;;20.50;42.90;;;;;;10434378;28;20763;-73
2022/05/24 07:39:44;;;;;;;2.67;2.10;;;20.50;43.90;;;;;;10435778;28;21086;-74
2022/05/24 07:50:19;;;;;;;2.20;2.10;;;20.40;43.60;;;;;;10436651;28;20225;-73
2022/05/24 07:55:23;;;;;;;2.13;1.90;;;20.40;43.90;;;;;;10434686;28;20225;-73
2022/05/24 08:00:26;;;;;;;1.80;1.60;;;20.40;43.60;;;;;;10435115;28;20228;-73
2022/05/24 08:05:34;;;;;;;1.70;1.60;;;20.40;43.40;;;;;;10435275;28;20312;-74
2022/05/24 08:10:39;;;;;;;2.07;1.70;;;20.30;43.90;;;;;;10434946;28;20233;-74
2022/05/24 08:15:42;;;;;;;1.50;1.40;;;20.20;43.60;;;;;;10432138;28;20235;-73
2022/05/24 08:20:47;;;;;;;2.57;1.90;;;20.20;43.60;;;;;;10434781;28;20252;-73
2022/05/24 08:25:51;;;;;;;3.27;1.80;;;20.20;44.50;;;;;;10434075;28;20925;-73
2022/05/24 08:30:55;;;;;;;2.10;1.90;;;20.20;44.10;;;;;;10431954;28;20604;-74
2022/05/24 08:35:59;;;;;;;3.53;1.80;;;20.10;44.10;;;;;;10430355;28;20229;-74
2022/05/24 08:41:06;;;;;;;1.80;1.70;;;20.10;44.60;;;;;;10434532;28;20232;-73
2022/05/24 08:51:41;;;;;;;1.80;1.70;;;20.00;44.90;;;;;;10433844;28;20235;-73
2022/05/24 08:56:48;;;;;;;2.07;1.80;;;20.00;45.10;;;;;;10432596;28;20217;-73
2022/05/24 09:01:53;;;;;;;2.57;1.93;;;20.00;45.00;;;;;;10433003;28;20240;-72
2022/05/24 09:07:04;;;;;;;1.80;1.70;;;20.00;44.90;;;;;;10434815;28;20229;-72
2022/05/24 09:12:23;;;;;;;2.17;1.87;;;20.00;46.40;;;;;;10438345;28;20881;-72
2022/05/24 09:17:40;;;;;;;2.23;1.77;;;20.00;46.60;;;;;;10436711;28;20247;-72
2022/05/24 09:22:44;;;;;;;1.80;1.70;;;20.00;46.50;;;;;;10434665;28;20231;-73
2022/05/24 09:27:51;;;;;;;2.53;1.70;;;20.10;45.70;;;;;;10427582;28;20224;-73
2022/05/24 09:33:14;;;;;;;2.93;1.50;;;20.10;45.70;;;;;;10430887;28;20225;-73
2022/05/24 09:38:22;;;;;;;1.50;1.40;;;20.10;44.90;;;;;;10429651;28;20217;-73
2022/05/24 09:43:29;;;;;;;2.73;1.60;;;20.00;45.60;;;;;;10430749;28;20311;-73
2022/05/24 09:48:34;;;;;;;1.50;1.40;;;19.90;45.70;;;;;;10431236;28;20240;-73
2022/05/24 09:53:50;;;;;;;1.60;1.50;;;19.90;45.50;;;;;;10432708;28;20225;-73
2022/05/24 09:58:56;;;;;;;1.47;1.37;;;19.70;46.80;;;;;;10427719;28;20617;-73
2022/05/24 10:04:16;;;;;;;2.10;1.40;;;19.70;46.20;;;;;;10432252;28;20241;-73
2022/05/24 10:09:48;;;;;;;1.53;1.40;;;19.70;45.70;;;;;;10430420;28;20228;-73
2022/05/24 10:15:01;;;;;;;1.50;1.10;;;19.60;45.80;;;;;;10430144;28;20300;-73
2022/05/24 10:20:14;;;;;;;1.50;1.20;;;19.60;45.60;;;;;;10431039;28;20222;-72
2022/05/24 10:25:24;;;;;;;1.30;1.20;;;19.50;45.80;;;;;;10433154;28;20228;-73
2022/05/24 10:30:31;;;;;;;1.67;1.20;;;19.50;46.40;;;;;;10425098;28;20227;-73
2022/05/24 10:41:10;;;;;;;2.10;1.20;;;19.70;45.70;;;;;;10429723;28;20220;-72
2022/05/24 10:46:17;;;;;;;1.37;1.13;;;19.70;46.20;;;;;;10428040;28;20724;-72
2022/05/24 10:51:29;;;;;;;1.77;0.70;;;19.80;44.70;;;;;;10430690;28;20237;-72
2022/05/24 10:56:40;;;;;;;1.50;0.70;;;19.90;41.90;;;;;;10435800;28;20229;-72
2022/05/24 11:01:50;;;;;;;2.00;0.57;;;19.70;41.00;;;;;;10438942;28;20229;-72
2022/05/24 11:06:59;;;;;;;0.87;0.73;;;19.50;41.00;;;;;;10443603;28;20241;-71
2022/05/24 11:12:08;;;;;;;1.47;0.60;;;19.20;41.70;;;;;;10444605;28;20229;-72
2022/05/24 11:17:13;;;;;;;0.77;0.70;;;19.10;42.50;;;;;;10434334;28;20605;-73
2022/05/24 11:22:23;;;;;;;1.93;0.83;;;19.00;42.60;;;;;;10433187;28;21060;-73
2022/05/24 11:27:31;;;;;;;1.90;0.80;;;18.90;42.70;;;;;;10437383;28;20229;-74
2022/05/24 11:32:38;;;;;;;0.93;0.67;;;18.90;42.70;;;;;;10431840;28;20232;-73
2022/05/24 11:37:43;;;;;;;1.33;0.70;;;19.00;42.90;;;;;;10441168;28;20259;-74
2022/05/24 11:42:48;;;;;;;0.57;0.57;;;19.00;42.40;;;;;;10436068;28;20244;-74
2022/05/24 11:48:00;;;;;;;0.90;0.50;;;19.00;43.10;;;;;;10433325;28;20240;-73
2022/05/24 11:53:05;;;;;;;0.60;0.60;;;19.00;42.70;;;;;;10435602;28;20701;-73
2022/05/24 11:58:43;;;;;;;0.60;0.60;;;19.00;42.70;;;;;;10430346;28;20282;-72
2022/05/24 12:09:55;;;;;;;3.07;0.90;;;18.90;41.90;;;;;;10435125;28;20248;-73
2022/05/24 12:15:17;;;;;;;0.90;0.70;;;18.90;42.30;;;;;;10432056;28;20224;-73
2022/05/24 12:20:56;;;;;;;0.77;0.77;;;18.90;42.70;;;;;;10430050;28;20216;-73
2022/05/24 12:26:01;;;;;;;0.77;0.60;;;19.00;42.50;;;;;;10426784;28;20229;-70
2022/05/24 12:31:17;;;;;;;2.00;0.93;;;19.00;42.30;;;;;;10420062;28;20233;-70
2022/05/24 12:36:26;;;;;;;1.00;1.00;;;18.90;42.00;;;;;;10424766;28;20736;-73
2022/05/24 12:41:52;;;;;;;1.03;0.90;;;19.00;42.30;;;;;;10424138;28;20216;-73
2022/05/24 12:47:15;;;;;;;0.97;0.70;;;19.00;43.30;;;;;;10426224;28;20229;-73
2022/05/24 12:52:22;;;;;;;0.77;0.77;;;19.10;43.20;;;;;;10423237;28;20236;-73
2022/05/24 12:57:29;;;;;;;1.03;0.60;;;19.10;43.30;;;;;;10426079;28;20275;-73
2022/05/24 13:02:37;;;;;;;0.90;0.90;;;19.10;43.60;;;;;;10421987;28;20746;-74
2022/05/24 13:07:44;;;;;;;0.93;0.93;;;19.20;43.60;;;;;;10423654;28;20225;-73
2022/05/24 13:12:48;;;;;;;1.00;1.00;;;19.30;43.70;;;;;;10423648;28;20229;-75
2022/05/24 13:17:58;;;;;;;4.70;4.30;;;19.40;43.00;;;;;;10423243;28;20237;-73
2022/05/24 13:23:05;;;;;;;1.77;1.60;;;19.50;42.70;;;;;;10423111;28;20359;-73
2022/05/24 13:28:08;;;;;;;2.13;1.17;;;19.50;43.00;;;;;;10420932;28;20217;-70
2022/05/24 13:38:35;;;;;;;1.20;1.10;;;19.70;43.20;;;;;;10419940;28;21061;-70
2022/05/24 13:43:41;;;;;;;1.20;1.20;;;19.80;42.80;;;;;;10421452;28;20225;-70
2022/05/24 13:48:54;;;;;;;1.27;1.17;;;19.90;42.30;;;;;;10430472;28;21125;-71
2022/05/24 13:53:58;;;;;;;1.40;1.10;;;19.90;42.10;;;;;;10431737;28;20232;-73
2022/05/24 13:59:08;;;;;;;1.43;1.10;;;20.00;42.20;;;;;;10429693;28;20237;-73
2022/05/24 14:04:16;;;;;;;1.10;1.10;;;20.00;41.50;;;;;;10430832;28;20305;-74
2022/05/24 14:09:20;;;;;;;0.83;0.80;;;20.00;41.70;;;;;;10428831;28;20232;-72
2022/05/24 14:14:25;;;;;;;0.90;0.90;;;20.10;42.30;;;;;;10430760;28;20570;-72
2022/05/24 14:19:29;;;;;;;0.93;0.87;;;20.10;41.70;;;;;;10430075;28;20670;-72
2022/05/24 14:24:40;;;;;;;1.00;0.97;;;20.20;41.20;;;;;;10430145;28;20286;-72
2022/05/24 14:29:45;;;;;;;0.80;0.80;;;20.30;41.30;;;;;;10424207;28;20216;-72
2022/05/24 14:34:50;;;;;;;0.80;0.80;;;20.30;41.60;;;;;;10419062;28;20237;-72
2022/05/24 14:39:53;;;;;;;1.33;0.90;;;20.40;41.10;;;;;;10422480;28;20229;-72
2022/05/24 14:44:57;;;;;;;0.90;0.90;;;20.50;41.30;;;;;;10425662;28;20228;-72
2022/05/24 14:50:01;;;;;;;0.90;0.90;;;20.50;40.70;;;;;;10421739;28;20236;-72
2022/05/24 14:55:05;;;;;;;2.03;1.10;;;20.60;40.90;;;;;;10421478;28;20225;-73
2022/05/24 15:00:09;;;;;;;1.17;1.07;;;20.60;40.50;;;;;;10419698;28;20220;-74
2022/05/24 15:05:14;;;;;;;1.00;0.90;;;20.70;40.50;;;;;;10422976;28;20221;-73
2022/05/24 15:15:40;;;;;;;0.90;0.90;;;20.80;40.30;;;;;;10423561;28;20239;-73
2022/05/24 15:20:47;;;;;;;0.87;0.80;;;20.80;40.30;;;;;;10425501;28;20230;-74
2022/05/24 15:25:54;;;;;;;0.80;0.80;;;20.90;39.40;;;;;;10424810;28;20233;-73
2022/05/24 15:30:58;;;;;;;1.83;1.10;;;20.90;39.90;;;;;;10425501;28;20232;-74
2022/05/24 15:36:03;;;;;;;0.90;0.90;;;21.00;40.50;;;;;;10423286;28;20240;-74
2022/05/24 15:41:07;;;;;;;0.90;0.90;;;21.10;40.10;;;;;;10430146;28;20233;-74
2022/05/24 15:46:11;;;;;;;1.23;0.97;;;21.20;40.20;;;;;;10433108;28;20225;-72
2022/05/24 15:51:15;;;;;;;0.80;0.80;;;21.20;39.90;;;;;;10434404;28;20243;-72
2022/05/24 15:56:19;;;;;;;1.10;1.10;;;21.30;39.40;;;;;;10430073;28;20236;-72
2022/05/24 16:01:22;;;;;;;1.10;1.10;;;21.30;39.30;;;;;;10431595;28;20226;-72
2022/05/24 16:11:51;;;;;;;0.70;0.70;;;21.20;38.80;;;;;;10432399;28;20225;-72
2022/05/24 16:16:57;;;;;;;1.90;1.00;;;21.10;39.00;;;;;;10430617;28;20320;-72
2022/05/24 16:22:05;;;;;;;0.87;0.83;;;21.00;38.70;;;;;;10430751;28;20225;-72
2022/05/24 16:27:08;;;;;;;0.90;0.90;;;21.00;38.90;;;;;;10436238;28;20236;-73
2022/05/24 16:32:11;;;;;;;0.90;0.90;;;20.90;39.10;;;;;;10434836;28;20226;-72
2022/05/24 16:37:16;;;;;;;0.77;0.77;;;20.80;39.40;;;;;;10438518;28;20228;-73
2022/05/24 16:42:20;;;;;;;0.77;0.77;;;20.70;39.00;;;;;;10434637;28;20696;-72
2022/05/24 16:47:23;;;;;;;0.90;0.90;;;20.70;39.20;;;;;;10433264;28;20225;-73
2022/05/24 16:52:27;;;;;;;1.73;1.00;;;20.70;38.90;;;;;;10430605;28;20244;-69
2022/05/24 17:02:55;;;;;;;0.90;0.90;;;20.60;39.50;;;;;;10428504;28;20224;-69
2022/05/24 17:08:00;;;;;;;1.00;0.80;;;20.60;39.40;;;;;;10427064;28;20239;-68
2022/05/24 17:13:04;;;;;;;0.93;0.93;;;20.60;39.50;;;;;;10422827;28;20226;-73
2022/05/24 17:18:08;;;;;;;1.20;1.00;;;20.60;39.60;;;;;;10427462;28;20233;-73
2022/05/24 17:23:13;;;;;;;0.97;0.97;;;20.50;39.70;;;;;;10428553;28;20220;-74
2022/05/24 17:28:17;;;;;;;0.83;0.83;;;20.50;39.80;;;;;;10426293;28;20240;-73
2022/05/24 17:33:24;;;;;;;1.43;0.93;;;20.50;40.00;;;;;;10427365;28;20221;-73
2022/05/24 17:38:28;;;;;;;1.00;1.00;;;20.50;40.00;;;;;;10428334;28;20236;-69
2022/05/24 17:43:35;;;;;;;2.00;1.20;;;20.50;40.10;;;;;;10425769;28;20232;-69
2022/05/24 17:48:40;;;;;;;1.67;1.00;;;20.50;40.10;;;;;;10425900;28;20282;-68
2022/05/24 17:53:45;;;;;;;0.90;0.90;;;20.40;40.10;;;;;;10430586;28;20225;-69
2022/05/24 17:58:48;;;;;;;0.87;0.87;;;20.30;40.30;;;;;;10428391;28;20233;-69
2022/05/24 18:03:51;;;;;;;0.90;0.90;;;20.30;40.40;;;;;;10429590;28;20713;-69
2022/05/24 18:08:55;;;;;;;1.83;1.20;;;20.20;40.40;;;;;;10427847;28;20232;-68
2022/05/24 18:13:58;;;;;;;1.10;1.10;;;20.20;40.70;;;;;;10428589;28;20224;-68
2022/05/24 18:19:02;;;;;;;1.50;1.20;;;20.10;40.40;;;;;;10428180;28;20300;-70
2022/05/24 18:24:11;;;;;;;1.50;1.40;;;20.00;40.60;;;;;;10429077;28;20233;-69
2022/05/24 18:34:38;;;;;;;1.40;1.30;;;19.80;40.90;;;;;;10427570;28;20244;-69
2022/05/24 18:39:43;;;;;;;2.50;1.30;;;19.70;41.10;;;;;;10429571;28;20225;-69
2022/05/24 18:44:46;;;;;;;1.30;1.20;;;19.70;41.10;;;;;;10423142;28;20224;-69
2022/05/24 18:49:50;;;;;;;1.63;1.30;;;19.60;41.10;;;;;;10424064;28;20233;-69
2022/05/24 18:54:55;;;;;;;1.50;1.30;;;19.60;41.20;;;;;;10425047;28;20228;-69
2022/05/24 19:00:19;;;;;;;1.80;1.70;;;19.60;41.50;;;;;;10426770;28;20596;-70
2022/05/24 19:05:23;;;;;;;1.57;1.47;;;19.60;41.50;;;;;;10424819;28;20237;-69
2022/05/24 19:10:29;;;;;;;1.47;1.37;;;19.60;41.50;;;;;;10426543;28;20221;-69
2022/05/24 19:15:32;;;;;;;1.87;1.77;;;19.60;41.60;;;;;;10427975;28;20252;-69
2022/05/24 19:20:36;;;;;;;2.00;1.80;;;19.50;41.30;;;;;;10434555;28;20228;-68
2022/05/24 19:25:41;;;;;;;2.13;1.87;;;19.50;41.60;;;;;;10433104;28;20229;-69
2022/05/24 19:30:47;;;;;;;2.33;1.93;;;19.40;41.90;;;;;;10420853;28;20229;-69
2022/05/24 19:35:50;;;;;;;3.83;2.10;;;19.40;41.80;;;;;;10420409;28;20709;-69
2022/05/24 19:46:18;;;;;;;2.83;2.23;;;19.30;42.50;;;;;;10429920;28;20224;-70
2022/05/24 19:51:21;;;;;;;2.60;2.40;;;19.30;41.90;;;;;;10432082;28;20217;-70
2022/05/24 19:56:25;;;;;;;3.73;3.00;;;19.30;42.10;;;;;;10430170;28;20256;-70
2022/05/24 20:01:29;;;;;;;2.50;2.10;;;19.30;42.40;;;;;;10429525;28;20225;-69
2022/05/24 20:06:32;;;;;;;1.90;1.80;;;19.30;42.20;;;;;;10429721;28;20225;-69
2022/05/24 20:11:39;;;;;;;1.80;1.70;;;19.20;42.40;;;;;;10429428;28;20229;-69
2022/05/24 20:16:42;;;;;;;2.10;2.00;;;19.20;42.90;;;;;;10427407;28;20228;-69
2022/05/24 20:21:46;;;;;;;2.40;1.80;;;19.20;42.60;;;;;;10432838;28;20729;-69
2022/05/24 20:26:52;;;;;;;2.00;1.80;;;19.20;42.80;;;;;;10428182;28;20225;-69
2022/05/24 20:31:55;;;;;;;2.60;2.00;;;19.30;43.10;;;;;;10427948;28;20229;-69
2022/05/24 20:36:58;;;;;;;2.37;2.13;;;19.30;42.80;;;;;;10432823;28;20296;-69
2022/05/24 20:42:05;;;;;;;1.90;1.70;;;19.30;42.70;;;;;;10430521;28;20225;-69
2022/05/24 20:47:11;;;;;;;3.03;1.80;;;19.30;43.40;;;;;;10435671;28;20240;-69
2022/05/24 20:52:14;;;;;;;1.87;1.77;;;19.30;43.10;;;;;;10433351;28;20225;-69
2022/05/24 20:57:19;;;;;;;2.03;1.63;;;19.30;42.80;;;;;;10433943;28;20233;-68
2022/05/24 21:02:32;;;;;;;1.90;1.80;;;19.30;43.10;;;;;;10432558;28;20259;-69
2022/05/24 21:07:36;;;;;;;2.80;1.63;;;19.30;43.60;;;;;;10431365;28;20229;-69
2022/05/24 21:12:40;;;;;;;2.13;1.83;;;19.30;43.30;;;;;;10433095;28;20247;-69
2022/05/24 21:17:43;;;;;;;2.80;1.60;;;19.40;43.10;;;;;;10430946;28;20235;-69
2022/05/24 21:22:48;;;;;;;4.57;1.67;;;19.40;43.10;;;;;;10432739;28;20221;-69
2022/05/24 21:28:05;;;;;;;1.63;1.53;;;19.50;43.50;;;;;;10434901;28;20236;-70
2022/05/24 21:33:11;;;;;;;1.93;1.73;;;19.50;43.30;;;;;;10427295;28;20229;-69
2022/05/24 21:38:17;;;;;;;1.97;1.80;;;19.50;43.10;;;;;;10432476;28;20620;-69
2022/05/24 21:43:21;;;;;;;4.70;2.13;;;19.50;43.30;;;;;;10431163;28;20227;-69
2022/05/24 21:48:26;;;;;;;4.03;1.97;;;19.60;43.10;;;;;;10432686;28;20670;-69
2022/05/24 21:53:31;;;;;;;2.50;2.23;;;19.50;42.90;;;;;;10430090;28;20229;-69
2022/05/24 21:58:35;;;;;;;3.43;2.20;;;19.50;43.50;;;;;;10429429;28;20230;-69
2022/05/24 22:03:40;;;;;;;1.90;1.63;;;19.40;43.10;;;;;;10430268;28;20217;-69
2022/05/24 22:08:44;;;;;;;2.23;1.80;;;19.50;43.30;;;;;;10432578;28;20229;-69
2022/05/24 22:13:48;;;;;;;2.20;2.00;;;19.50;43.40;;;;;;10429168;28;20239;-69
2022/05/24 22:18:52;;;;;;;2.00;1.90;;;19.50;43.10;;;;;;10426110;28;20234;-69
2022/05/24 22:23:56;;;;;;;2.17;2.07;;;19.50;43.10;;;;;;10432881;28;20225;-70
2022/05/24 22:29:00;;;;;;;2.57;1.87;;;19.40;43.40;;;;;;10432348;28;20614;-69
2022/05/24 22:34:04;;;;;;;1.80;1.70;;;19.40;43.10;;;;;;10427626;28;20240;-69
2022/05/24 22:39:09;;;;;;;1.67;1.50;;;19.40;43.40;;;;;;10431503;28;20236;-69
2022/05/24 22:44:55;;;;;;;1.90;1.67;;;19.40;43.50;;;;;;10433115;28;20731;-69
2022/05/24 22:49:36;;;;;;;2.20;1.97;;;19.40;43.30;;;;;;10435945;28;20236;-69
2022/05/24 22:54:41;;;;;;;2.43;1.90;;;19.40;43.40;;;;;;10433515;28;20263;-69
2022/05/24 22:59:45;;;;;;;1.97;1.70;;;19.40;43.90;;;;;;10438010;28;20232;-69
2022/05/24 23:04:48;;;;;;;1.90;1.70;;;19.40;43.60;;;;;;10437549;28;20714;-69
2022/05/24 23:09:53;;;;;;;1.90;1.80;;;19.30;43.30;;;;;;10436986;28;20233;-69
2022/05/24 23:14:56;;;;;;;1.93;1.70;;;19.30;43.70;;;;;;10436411;28;20225;-69
2022/05/24 23:20:00;;;;;;;2.17;1.90;;;19.30;43.60;;;;;;10441251;28;20240;-69
2022/05/24 23:25:05;;;;;;;2.07;1.97;;;19.30;43.70;;;;;;10437427;28;20239;-69
2022/05/24 23:30:10;;;;;;;1.97;1.83;;;19.30;43.90;;;;;;10438426;28;20236;-69
2022/05/24 23:35:14;;;;;;;2.10;1.90;;;19.30;43.70;;;;;;10433212;28;20264;-69
2022/05/24 23:40:19;;;;;;;2.87;2.20;;;19.20;43.50;;;;;;10434837;28;20939;-70
2022/05/24 23:45:22;;;;;;;2.40;2.20;;;19.20;43.70;;;;;;10433448;28;20343;-69
2022/05/24 23:50:26;;;;;;;1.70;1.60;;;19.10;43.30;;;;;;10437645;28;20235;-69
2022/05/24 23:55:30;;;;;;;2.13;1.90;;;19.10;43.60;;;;;;10437170;28;20604;-69
